Pagina principale
METAR-TAF:

METAR-TAF

Aeroporti :

Brazza, Croazia

latitudine: 43-17-09N, longitudine: 016-40-47E, altezza: 541 m

Osservazione

Il bollettino è stato emesso 1 ora e 30 minuti fa, alle 15:00 UTC
Vento 7 kt da sud/sud-ovest
Temperature 29°C
Umidità 40%
Pressione 1019 hPa
Visibilità 10 km o più
nessuna nube inferiore a 1500 m e nessun cumulonembo

METAR: LDSB 191500Z 20007KT CAVOK 29/14 Q1019

Ora: 18:30 (16:30 UTC)

Previsione

Il bollettino è stato emesso 1 ora e 54 minuti fa, alle 14:36 UTC
Previsione valida dal 19 alle 15 UTC al 20 alle 12 UTC
Vento 8 kt da sud/sud-ovest
Visibilità 10 km o più
nessuna nube inferiore a 1500 m e nessun cumulonembo
Evoluzione graduale
dal 19 alle 16 UTC al 19 alle 18 UTC
Vento 6 kt da nord-est
Evoluzione graduale
dal 20 alle 09 UTC al 20 alle 11 UTC
Vento 8 kt da sud-ovest

TAF: LDSB 191436Z 1915/2012 21008KT CAVOK TX30/2011Z TN19/2004Z BECMG 1916/1918 05006KT BECMG 2009/2011 22008KT

Osservazioni e previsioni meteorologiche di più di 4000 aeroporti (messaggi METAR e TAF).

Le stazioni disponibili sono rappresentate dai dischi gialli e rossi sulla carta.

Puntare il mouse per vedere il nome della stazione.

Clicca sopra per visualizzare le osservazioni e previsioni meteorologiche.

Per cambiare la mappa : fare clic sui pulsanti verdi con una croce nera per ingrandire, il pulsante verde con un trattino per diminuire, o sulla freccia verde per le mappe adiacenti.


METAR-TAF: